Weather at Marki Airfield

Public forecast

Using degrees Celsius for public forecast. Weather courtesy of forecast.io.

Closest aviation weather report (METAR) to Marki Airfield

Closest report is Nicosia (Lefkoşa) Ercan International Airport, 12.6 nm (23.4 km) NE.

2024/06/17 03:50 (retrieved 35 minutes ago)

LCEN 170350Z 00000KT 8000 BKN007 24/20 Q1009 NOSIG RMK RWY11R 00000KT RWY29R 00000KT RWY11L 00000KT

Closest aviation forecast (TAF) to Marki Airfield

Forecast is more than 6 hours old.

Closest forecast is Beirut Rafic Hariri International Airport, 129.5 nm (239.9 km) ESE.

2024/06/16 21:00 (retrieved 7 hours ago)

TAF EDLW 162151Z 1621/1718 CNL TAF OLBA 162200Z 1700/1806 16004KT 8000 SCT026 BECMG 1706/1708 22010KT BECMG 1720/1722 14006KT NSC